sensor_id;sensor_type;location;lat;lon;timestamp;pressure;altitude;pressure_sealevel;temperature;humidity
56176;BME280;63065;51.082;17.016;2022-10-16T00:02:14;100252.96;;;15.29;51.80
56176;BME280;63065;51.082;17.016;2022-10-16T00:04:39;100250.77;;;15.51;51.85
56176;BME280;63065;51.082;17.016;2022-10-16T00:07:05;100251.90;;;15.27;51.85
56176;BME280;63065;51.082;17.016;2022-10-16T00:09:31;100256.41;;;15.49;51.87
56176;BME280;63065;51.082;17.016;2022-10-16T00:11:56;100256.15;;;15.26;51.90
56176;BME280;63065;51.082;17.016;2022-10-16T00:14:22;100255.13;;;15.54;51.82
56176;BME280;63065;51.082;17.016;2022-10-16T00:16:47;100253.62;;;15.76;51.76
56176;BME280;63065;51.082;17.016;2022-10-16T00:19:12;100253.54;;;15.47;51.92
56176;BME280;63065;51.082;17.016;2022-10-16T00:21:38;100248.56;;;15.29;51.86
56176;BME280;63065;51.082;17.016;2022-10-16T00:24:07;100247.39;;;15.48;51.69
56176;BME280;63065;51.082;17.016;2022-10-16T00:26:31;100248.35;;;15.71;51.80
56176;BME280;63065;51.082;17.016;2022-10-16T00:28:54;100245.11;;;15.29;52.14
56176;BME280;63065;51.082;17.016;2022-10-16T00:31:22;100242.72;;;15.03;52.19
56176;BME280;63065;51.082;17.016;2022-10-16T00:33:45;100243.67;;;15.09;52.08
56176;BME280;63065;51.082;17.016;2022-10-16T00:36:12;100246.47;;;15.35;52.04
56176;BME280;63065;51.082;17.016;2022-10-16T00:38:36;100246.44;;;15.56;52.07
56176;BME280;63065;51.082;17.016;2022-10-16T00:41:01;100248.37;;;15.31;52.08
56176;BME280;63065;51.082;17.016;2022-10-16T00:43:34;100246.59;;;15.33;52.06
56176;BME280;63065;51.082;17.016;2022-10-16T00:45:52;100248.04;;;15.08;52.12
56176;BME280;63065;51.082;17.016;2022-10-16T00:48:17;100248.31;;;15.25;52.18
56176;BME280;63065;51.082;17.016;2022-10-16T00:50:43;100245.50;;;15.22;52.21
56176;BME280;63065;51.082;17.016;2022-10-16T00:53:08;100244.57;;;15.52;52.15
56176;BME280;63065;51.082;17.016;2022-10-16T00:55:34;100247.84;;;15.10;52.09
56176;BME280;63065;51.082;17.016;2022-10-16T00:58:00;100247.86;;;15.16;51.95
56176;BME280;63065;51.082;17.016;2022-10-16T01:00:26;100250.80;;;15.16;51.97
56176;BME280;63065;51.082;17.016;2022-10-16T01:02:53;100255.43;;;15.26;52.12
56176;BME280;63065;51.082;17.016;2022-10-16T01:05:16;100248.48;;;15.13;52.02
56176;BME280;63065;51.082;17.016;2022-10-16T01:07:47;100244.16;;;15.38;51.96
56176;BME280;63065;51.082;17.016;2022-10-16T01:10:16;100242.71;;;15.45;51.86
56176;BME280;63065;51.082;17.016;2022-10-16T01:12:39;100248.85;;;15.42;51.81
56176;BME280;63065;51.082;17.016;2022-10-16T01:15:01;100245.64;;;15.31;51.66
56176;BME280;63065;51.082;17.016;2022-10-16T01:17:28;100239.11;;;15.30;51.64
56176;BME280;63065;51.082;17.016;2022-10-16T01:20:01;100241.62;;;15.25;51.62
56176;BME280;63065;51.082;17.016;2022-10-16T01:22:15;100245.39;;;15.46;51.70
56176;BME280;63065;51.082;17.016;2022-10-16T01:24:43;100253.20;;;15.21;51.66
56176;BME280;63065;51.082;17.016;2022-10-16T01:27:09;100252.43;;;15.31;51.95
56176;BME280;63065;51.082;17.016;2022-10-16T01:29:36;100252.23;;;15.43;51.74
56176;BME280;63065;51.082;17.016;2022-10-16T01:32:00;100257.47;;;15.55;51.83
56176;BME280;63065;51.082;17.016;2022-10-16T01:34:28;100253.70;;;15.48;51.63
56176;BME280;63065;51.082;17.016;2022-10-16T01:36:51;100250.64;;;15.36;51.75
56176;BME280;63065;51.082;17.016;2022-10-16T01:39:14;100247.42;;;15.40;51.70
56176;BME280;63065;51.082;17.016;2022-10-16T01:41:43;100242.36;;;15.21;51.64
56176;BME280;63065;51.082;17.016;2022-10-16T01:44:06;100237.81;;;15.34;51.88
56176;BME280;63065;51.082;17.016;2022-10-16T01:46:31;100240.03;;;15.30;51.94
56176;BME280;63065;51.082;17.016;2022-10-16T01:48:55;100244.84;;;15.33;51.88
56176;BME280;63065;51.082;17.016;2022-10-16T01:51:20;100251.45;;;15.08;51.89
56176;BME280;63065;51.082;17.016;2022-10-16T01:53:50;100250.67;;;15.13;51.91
56176;BME280;63065;51.082;17.016;2022-10-16T01:56:12;100250.44;;;15.12;51.90
56176;BME280;63065;51.082;17.016;2022-10-16T01:58:41;100251.33;;;15.58;51.81
56176;BME280;63065;51.082;17.016;2022-10-16T02:01:05;100256.08;;;15.08;51.91
56176;BME280;63065;51.082;17.016;2022-10-16T02:03:29;100261.23;;;15.09;51.97
56176;BME280;63065;51.082;17.016;2022-10-16T02:05:56;100256.52;;;15.24;51.74
56176;BME280;63065;51.082;17.016;2022-10-16T02:08:20;100258.26;;;15.26;51.91
56176;BME280;63065;51.082;17.016;2022-10-16T02:10:44;100254.28;;;15.29;52.01
56176;BME280;63065;51.082;17.016;2022-10-16T02:13:12;100253.45;;;15.26;52.06
56176;BME280;63065;51.082;17.016;2022-10-16T02:15:35;100254.88;;;14.99;52.12
56176;BME280;63065;51.082;17.016;2022-10-16T02:18:01;100253.16;;;15.02;52.14
56176;BME280;63065;51.082;17.016;2022-10-16T02:20:27;100258.62;;;15.24;52.09
56176;BME280;63065;51.082;17.016;2022-10-16T02:22:52;100264.87;;;15.22;52.11
56176;BME280;63065;51.082;17.016;2022-10-16T02:25:22;100266.32;;;15.00;52.15
56176;BME280;63065;51.082;17.016;2022-10-16T02:27:47;100269.21;;;15.00;52.13
56176;BME280;63065;51.082;17.016;2022-10-16T02:30:11;100276.24;;;14.88;52.33
56176;BME280;63065;51.082;17.016;2022-10-16T02:32:34;100283.68;;;15.16;52.22
56176;BME280;63065;51.082;17.016;2022-10-16T02:34:59;100288.72;;;15.40;52.16
56176;BME280;63065;51.082;17.016;2022-10-16T02:37:25;100285.85;;;14.89;52.52
56176;BME280;63065;51.082;17.016;2022-10-16T02:39:49;100284.87;;;14.96;52.44
56176;BME280;63065;51.082;17.016;2022-10-16T02:42:17;100280.09;;;14.95;52.34
56176;BME280;63065;51.082;17.016;2022-10-16T02:44:40;100281.07;;;14.95;52.42
56176;BME280;63065;51.082;17.016;2022-10-16T02:47:05;100287.41;;;15.25;52.29
56176;BME280;63065;51.082;17.016;2022-10-16T02:49:31;100285.17;;;14.98;52.37
56176;BME280;63065;51.082;17.016;2022-10-16T02:51:56;100281.97;;;15.25;52.31
56176;BME280;63065;51.082;17.016;2022-10-16T02:54:22;100278.48;;;14.76;52.38
56176;BME280;63065;51.082;17.016;2022-10-16T02:56:47;100278.72;;;14.92;52.47
56176;BME280;63065;51.082;17.016;2022-10-16T02:59:13;100280.91;;;15.15;52.49
56176;BME280;63065;51.082;17.016;2022-10-16T03:01:38;100284.83;;;14.93;52.48
56176;BME280;63065;51.082;17.016;2022-10-16T03:04:04;100286.78;;;14.93;52.14
56176;BME280;63065;51.082;17.016;2022-10-16T03:06:29;100289.60;;;15.17;52.00
56176;BME280;63065;51.082;17.016;2022-10-16T03:08:55;100287.30;;;14.80;52.66
56176;BME280;63065;51.082;17.016;2022-10-16T03:11:21;100297.15;;;14.63;52.62
56176;BME280;63065;51.082;17.016;2022-10-16T03:13:46;100304.23;;;15.19;52.53
56176;BME280;63065;51.082;17.016;2022-10-16T03:16:12;100309.08;;;15.27;52.44
56176;BME280;63065;51.082;17.016;2022-10-16T03:18:37;100307.62;;;15.09;52.34
56176;BME280;63065;51.082;17.016;2022-10-16T03:21:03;100304.81;;;15.16;52.29
56176;BME280;63065;51.082;17.016;2022-10-16T03:23:28;100300.34;;;14.92;52.30
56176;BME280;63065;51.082;17.016;2022-10-16T03:25:54;100297.82;;;15.02;52.17
56176;BME280;63065;51.082;17.016;2022-10-16T03:28:20;100297.80;;;14.96;52.29
56176;BME280;63065;51.082;17.016;2022-10-16T03:30:45;100297.10;;;15.27;52.20
56176;BME280;63065;51.082;17.016;2022-10-16T03:33:11;100304.37;;;15.20;52.45
56176;BME280;63065;51.082;17.016;2022-10-16T03:35:36;100307.10;;;15.03;52.42
56176;BME280;63065;51.082;17.016;2022-10-16T03:38:01;100311.56;;;15.61;52.38
56176;BME280;63065;51.082;17.016;2022-10-16T03:40:27;100310.61;;;15.18;52.32
56176;BME280;63065;51.082;17.016;2022-10-16T03:42:52;100311.77;;;15.11;52.37
56176;BME280;63065;51.082;17.016;2022-10-16T03:45:18;100315.02;;;15.24;52.60
56176;BME280;63065;51.082;17.016;2022-10-16T03:47:43;100320.04;;;15.08;52.55
56176;BME280;63065;51.082;17.016;2022-10-16T03:50:09;100319.39;;;15.11;52.56
56176;BME280;63065;51.082;17.016;2022-10-16T03:52:35;100316.43;;;15.18;52.52
56176;BME280;63065;51.082;17.016;2022-10-16T03:55:01;100316.65;;;15.36;52.53
56176;BME280;63065;51.082;17.016;2022-10-16T03:57:26;100318.21;;;15.11;52.63
56176;BME280;63065;51.082;17.016;2022-10-16T03:59:51;100315.17;;;15.51;52.67
56176;BME280;63065;51.082;17.016;2022-10-16T04:02:17;100317.17;;;15.07;52.77
56176;BME280;63065;51.082;17.016;2022-10-16T04:04:43;100319.20;;;15.09;52.79
56176;BME280;63065;51.082;17.016;2022-10-16T04:07:08;100318.52;;;15.09;52.90
56176;BME280;63065;51.082;17.016;2022-10-16T04:09:33;100324.68;;;15.15;52.91
56176;BME280;63065;51.082;17.016;2022-10-16T04:11:59;100327.29;;;15.54;52.95
56176;BME280;63065;51.082;17.016;2022-10-16T04:14:25;100335.37;;;15.28;52.91
56176;BME280;63065;51.082;17.016;2022-10-16T04:16:50;100334.57;;;15.53;52.98
56176;BME280;63065;51.082;17.016;2022-10-16T04:19:16;100337.91;;;15.28;52.98
56176;BME280;63065;51.082;17.016;2022-10-16T04:21:41;100335.07;;;15.07;52.99
56176;BME280;63065;51.082;17.016;2022-10-16T04:24:06;100327.53;;;15.06;53.01
56176;BME280;63065;51.082;17.016;2022-10-16T04:26:31;100330.51;;;15.02;53.04
56176;BME280;63065;51.082;17.016;2022-10-16T04:28:57;100337.77;;;14.99;53.22
56176;BME280;63065;51.082;17.016;2022-10-16T04:31:22;100338.56;;;14.31;54.28
56176;BME280;63065;51.082;17.016;2022-10-16T04:33:48;100340.95;;;14.73;54.39
56176;BME280;63065;51.082;17.016;2022-10-16T04:36:13;100340.76;;;14.66;54.06
56176;BME280;63065;51.082;17.016;2022-10-16T04:38:39;100347.28;;;14.63;53.97
56176;BME280;63065;51.082;17.016;2022-10-16T04:41:05;100350.71;;;14.81;54.04
56176;BME280;63065;51.082;17.016;2022-10-16T04:43:30;100352.23;;;14.63;54.01
56176;BME280;63065;51.082;17.016;2022-10-16T04:45:55;100355.02;;;14.94;53.90
56176;BME280;63065;51.082;17.016;2022-10-16T04:48:21;100353.89;;;14.54;53.78
56176;BME280;63065;51.082;17.016;2022-10-16T04:50:46;100356.16;;;15.07;53.68
56176;BME280;63065;51.082;17.016;2022-10-16T04:53:12;100350.01;;;14.98;53.46
56176;BME280;63065;51.082;17.016;2022-10-16T04:55:37;100346.64;;;14.98;53.42
56176;BME280;63065;51.082;17.016;2022-10-16T04:58:02;100340.36;;;14.77;53.33
56176;BME280;63065;51.082;17.016;2022-10-16T05:00:27;100339.48;;;14.73;53.32
56176;BME280;63065;51.082;17.016;2022-10-16T05:02:53;100344.24;;;14.82;53.57
56176;BME280;63065;51.082;17.016;2022-10-16T05:05:19;100345.44;;;14.61;53.58
56176;BME280;63065;51.082;17.016;2022-10-16T05:07:44;100346.72;;;14.75;53.33
56176;BME280;63065;51.082;17.016;2022-10-16T05:10:09;100354.86;;;15.15;53.37
56176;BME280;63065;51.082;17.016;2022-10-16T05:12:35;100360.01;;;15.22;53.29
56176;BME280;63065;51.082;17.016;2022-10-16T05:15:01;100367.91;;;15.09;53.45
56176;BME280;63065;51.082;17.016;2022-10-16T05:17:27;100368.99;;;14.91;53.42
56176;BME280;63065;51.082;17.016;2022-10-16T05:19:52;100365.21;;;14.98;53.35
56176;BME280;63065;51.082;17.016;2022-10-16T05:22:18;100366.47;;;14.98;53.30
56176;BME280;63065;51.082;17.016;2022-10-16T05:24:44;100363.57;;;15.00;53.29
56176;BME280;63065;51.082;17.016;2022-10-16T05:27:09;100360.61;;;15.21;53.29
56176;BME280;63065;51.082;17.016;2022-10-16T05:29:34;100363.59;;;15.30;53.15
56176;BME280;63065;51.082;17.016;2022-10-16T05:32:00;100363.37;;;15.17;52.94
56176;BME280;63065;51.082;17.016;2022-10-16T05:34:25;100363.54;;;14.98;52.90
56176;BME280;63065;51.082;17.016;2022-10-16T05:36:51;100363.36;;;15.34;52.91
56176;BME280;63065;51.082;17.016;2022-10-16T05:39:17;100368.65;;;15.01;52.81
56176;BME280;63065;51.082;17.016;2022-10-16T05:41:42;100367.87;;;15.11;53.03
56176;BME280;63065;51.082;17.016;2022-10-16T05:44:07;100371.34;;;15.17;52.90
56176;BME280;63065;51.082;17.016;2022-10-16T05:46:33;100376.41;;;15.22;52.88
56176;BME280;63065;51.082;17.016;2022-10-16T05:48:58;100376.52;;;14.91;53.02
56176;BME280;63065;51.082;17.016;2022-10-16T05:51:23;100375.04;;;15.25;52.91
56176;BME280;63065;51.082;17.016;2022-10-16T05:53:49;100370.61;;;15.15;52.76
56176;BME280;63065;51.082;17.016;2022-10-16T05:56:14;100375.51;;;15.12;52.75
56176;BME280;63065;51.082;17.016;2022-10-16T05:58:40;100379.49;;;15.13;52.76
56176;BME280;63065;51.082;17.016;2022-10-16T06:01:06;100384.56;;;15.10;52.84
56176;BME280;63065;51.082;17.016;2022-10-16T06:03:31;100393.92;;;15.06;52.97
56176;BME280;63065;51.082;17.016;2022-10-16T06:05:56;100395.74;;;15.18;53.20
56176;BME280;63065;51.082;17.016;2022-10-16T06:08:23;100392.43;;;15.17;53.38
56176;BME280;63065;51.082;17.016;2022-10-16T06:10:48;100396.18;;;15.28;53.18
56176;BME280;63065;51.082;17.016;2022-10-16T06:13:15;100403.82;;;15.04;53.26
56176;BME280;63065;51.082;17.016;2022-10-16T06:15:39;100404.62;;;15.41;53.08
56176;BME280;63065;51.082;17.016;2022-10-16T06:18:05;100408.14;;;15.53;52.99
56176;BME280;63065;51.082;17.016;2022-10-16T06:20:31;100411.93;;;15.40;52.81
56176;BME280;63065;51.082;17.016;2022-10-16T06:22:57;100412.25;;;15.52;52.75
56176;BME280;63065;51.082;17.016;2022-10-16T06:25:21;100411.01;;;15.58;52.66
56176;BME280;63065;51.082;17.016;2022-10-16T06:27:47;100416.10;;;15.72;52.55
56176;BME280;63065;51.082;17.016;2022-10-16T06:30:13;100414.64;;;15.76;52.51
56176;BME280;63065;51.082;17.016;2022-10-16T06:32:39;100413.92;;;15.59;52.46
56176;BME280;63065;51.082;17.016;2022-10-16T06:35:05;100416.28;;;15.92;52.39
56176;BME280;63065;51.082;17.016;2022-10-16T06:37:29;100421.47;;;15.72;52.41
56176;BME280;63065;51.082;17.016;2022-10-16T06:39:55;100428.46;;;16.10;52.42
56176;BME280;63065;51.082;17.016;2022-10-16T06:42:20;100430.03;;;16.18;52.35
56176;BME280;63065;51.082;17.016;2022-10-16T06:44:45;100432.89;;;16.01;52.32
56176;BME280;63065;51.082;17.016;2022-10-16T06:47:11;100440.91;;;16.13;52.32
56176;BME280;63065;51.082;17.016;2022-10-16T06:49:37;100446.22;;;16.16;52.31
56176;BME280;63065;51.082;17.016;2022-10-16T06:52:02;100451.75;;;16.50;52.33
56176;BME280;63065;51.082;17.016;2022-10-16T06:54:27;100453.03;;;16.06;52.37
56176;BME280;63065;51.082;17.016;2022-10-16T06:56:53;100457.26;;;16.32;52.40
56176;BME280;63065;51.082;17.016;2022-10-16T06:59:18;100460.59;;;16.39;52.43
56176;BME280;63065;51.082;17.016;2022-10-16T07:01:44;100461.32;;;16.25;52.52
56176;BME280;63065;51.082;17.016;2022-10-16T07:04:10;100462.68;;;16.45;52.54
56176;BME280;63065;51.082;17.016;2022-10-16T07:06:35;100465.06;;;16.44;52.61
56176;BME280;63065;51.082;17.016;2022-10-16T07:09:03;100466.98;;;16.27;52.67
56176;BME280;63065;51.082;17.016;2022-10-16T07:11:25;100467.56;;;16.30;52.73
56176;BME280;63065;51.082;17.016;2022-10-16T07:13:51;100470.44;;;16.54;52.73
56176;BME280;63065;51.082;17.016;2022-10-16T07:16:18;100476.02;;;16.39;52.81
56176;BME280;63065;51.082;17.016;2022-10-16T07:18:42;100477.75;;;16.48;52.81
56176;BME280;63065;51.082;17.016;2022-10-16T07:21:09;100476.85;;;16.62;52.66
56176;BME280;63065;51.082;17.016;2022-10-16T07:23:33;100474.63;;;16.74;52.64
56176;BME280;63065;51.082;17.016;2022-10-16T07:25:59;100476.72;;;16.87;52.51
56176;BME280;63065;51.082;17.016;2022-10-16T07:28:23;100476.39;;;16.86;52.62
56176;BME280;63065;51.082;17.016;2022-10-16T07:30:49;100478.86;;;16.88;52.63
56176;BME280;63065;51.082;17.016;2022-10-16T07:33:14;100477.38;;;17.08;52.50
56176;BME280;63065;51.082;17.016;2022-10-16T07:35:49;100479.79;;;17.10;52.45
56176;BME280;63065;51.082;17.016;2022-10-16T07:38:06;100482.28;;;17.01;52.63
56176;BME280;63065;51.082;17.016;2022-10-16T07:40:31;100486.34;;;16.87;52.65
56176;BME280;63065;51.082;17.016;2022-10-16T07:42:57;100490.57;;;17.13;52.72
56176;BME280;63065;51.082;17.016;2022-10-16T07:45:22;100485.05;;;16.67;52.68
56176;BME280;63065;51.082;17.016;2022-10-16T07:47:49;100477.95;;;17.22;52.72
56176;BME280;63065;51.082;17.016;2022-10-16T07:50:13;100479.89;;;17.33;52.67
56176;BME280;63065;51.082;17.016;2022-10-16T07:52:40;100482.61;;;17.23;52.49
56176;BME280;63065;51.082;17.016;2022-10-16T07:55:05;100482.25;;;17.31;52.45
56176;BME280;63065;51.082;17.016;2022-10-16T07:57:31;100487.13;;;17.67;52.37
56176;BME280;63065;51.082;17.016;2022-10-16T07:59:56;100485.94;;;17.36;52.26
56176;BME280;63065;51.082;17.016;2022-10-16T08:02:22;100483.16;;;17.50;52.07
56176;BME280;63065;51.082;17.016;2022-10-16T08:04:48;100485.67;;;17.71;51.87
56176;BME280;63065;51.082;17.016;2022-10-16T08:07:13;100487.99;;;17.89;51.59
56176;BME280;63065;51.082;17.016;2022-10-16T08:09:39;100493.85;;;18.03;51.41
56176;BME280;63065;51.082;17.016;2022-10-16T08:12:05;100492.31;;;18.19;51.35
56176;BME280;63065;51.082;17.016;2022-10-16T08:14:31;100495.52;;;18.29;51.15
56176;BME280;63065;51.082;17.016;2022-10-16T08:16:56;100497.84;;;18.41;51.15
56176;BME280;63065;51.082;17.016;2022-10-16T08:19:22;100496.68;;;18.42;51.15
56176;BME280;63065;51.082;17.016;2022-10-16T08:21:48;100498.74;;;18.41;51.18
56176;BME280;63065;51.082;17.016;2022-10-16T08:24:13;100502.77;;;18.38;51.34
56176;BME280;63065;51.082;17.016;2022-10-16T08:26:39;100504.45;;;18.14;51.34
56176;BME280;63065;51.082;17.016;2022-10-16T08:29:05;100506.52;;;18.36;51.56
56176;BME280;63065;51.082;17.016;2022-10-16T08:31:31;100510.41;;;18.21;51.58
56176;BME280;63065;51.082;17.016;2022-10-16T08:33:56;100503.28;;;18.45;51.09
56176;BME280;63065;51.082;17.016;2022-10-16T08:36:22;100507.22;;;18.34;51.47
56176;BME280;63065;51.082;17.016;2022-10-16T08:38:49;100509.96;;;18.40;51.38
56176;BME280;63065;51.082;17.016;2022-10-16T08:41:27;100513.89;;;18.39;51.40
56176;BME280;63065;51.082;17.016;2022-10-16T08:43:50;100521.07;;;18.46;51.39
56176;BME280;63065;51.082;17.016;2022-10-16T08:46:16;100521.45;;;18.29;51.42
56176;BME280;63065;51.082;17.016;2022-10-16T08:48:38;100525.53;;;18.32;51.18
56176;BME280;63065;51.082;17.016;2022-10-16T08:50:56;100532.15;;;18.25;50.64
56176;BME280;63065;51.082;17.016;2022-10-16T08:53:26;100531.17;;;18.46;51.35
56176;BME280;63065;51.082;17.016;2022-10-16T08:55:51;100531.43;;;18.61;51.35
56176;BME280;63065;51.082;17.016;2022-10-16T08:58:15;100535.93;;;18.84;51.01
56176;BME280;63065;51.082;17.016;2022-10-16T09:00:40;100539.94;;;18.82;50.92
56176;BME280;63065;51.082;17.016;2022-10-16T09:03:13;100542.65;;;18.76;50.56
56176;BME280;63065;51.082;17.016;2022-10-16T09:08:04;100538.44;;;19.24;49.99
56176;BME280;63065;51.082;17.016;2022-10-16T09:10:33;100539.11;;;19.42;49.64
56176;BME280;63065;51.082;17.016;2022-10-16T09:12:53;100539.14;;;19.56;49.68
56176;BME280;63065;51.082;17.016;2022-10-16T09:15:21;100542.68;;;19.73;49.79
56176;BME280;63065;51.082;17.016;2022-10-16T09:17:48;100544.75;;;19.53;49.23
56176;BME280;63065;51.082;17.016;2022-10-16T09:20:18;100543.78;;;19.65;49.42
56176;BME280;63065;51.082;17.016;2022-10-16T09:22:31;100544.64;;;19.59;49.44
56176;BME280;63065;51.082;17.016;2022-10-16T09:25:00;100543.54;;;19.75;49.05
56176;BME280;63065;51.082;17.016;2022-10-16T09:27:22;100546.93;;;19.67;49.33
56176;BME280;63065;51.082;17.016;2022-10-16T09:29:48;100549.20;;;19.74;49.04
56176;BME280;63065;51.082;17.016;2022-10-16T09:32:17;100549.65;;;19.63;49.25
56176;BME280;63065;51.082;17.016;2022-10-16T09:34:43;100551.80;;;19.75;49.49
56176;BME280;63065;51.082;17.016;2022-10-16T09:37:09;100549.73;;;19.60;49.55
56176;BME280;63065;51.082;17.016;2022-10-16T09:39:30;100550.44;;;19.66;49.17
56176;BME280;63065;51.082;17.016;2022-10-16T09:41:56;100554.96;;;19.49;49.51
56176;BME280;63065;51.082;17.016;2022-10-16T09:44:26;100552.42;;;19.71;49.13
56176;BME280;63065;51.082;17.016;2022-10-16T09:46:47;100545.16;;;19.60;49.08
56176;BME280;63065;51.082;17.016;2022-10-16T09:49:20;100540.19;;;19.92;48.57
56176;BME280;63065;51.082;17.016;2022-10-16T09:51:38;100542.01;;;19.97;48.97
56176;BME280;63065;51.082;17.016;2022-10-16T09:54:13;100542.32;;;19.98;48.63
56176;BME280;63065;51.082;17.016;2022-10-16T09:56:31;100539.08;;;20.06;48.63
56176;BME280;63065;51.082;17.016;2022-10-16T09:58:57;100539.58;;;20.28;48.44
56176;BME280;63065;51.082;17.016;2022-10-16T10:01:24;100541.33;;;20.43;47.60
56176;BME280;63065;51.082;17.016;2022-10-16T10:03:47;100542.41;;;20.61;46.95
56176;BME280;63065;51.082;17.016;2022-10-16T10:06:21;100536.09;;;20.60;47.64
56176;BME280;63065;51.082;17.016;2022-10-16T10:08:38;100537.50;;;20.87;47.08
56176;BME280;63065;51.082;17.016;2022-10-16T10:11:03;100538.28;;;20.86;47.08
56176;BME280;63065;51.082;17.016;2022-10-16T10:13:29;100538.15;;;21.10;47.00
56176;BME280;63065;51.082;17.016;2022-10-16T10:15:55;100539.16;;;20.73;46.69
56176;BME280;63065;51.082;17.016;2022-10-16T10:18:22;100538.19;;;20.98;46.94
56176;BME280;63065;51.082;17.016;2022-10-16T10:23:22;100541.47;;;20.76;47.06
56176;BME280;63065;51.082;17.016;2022-10-16T10:25:46;100542.76;;;21.01;46.31
56176;BME280;63065;51.082;17.016;2022-10-16T10:28:17;100539.63;;;20.73;45.31
56176;BME280;63065;51.082;17.016;2022-10-16T10:30:35;100540.68;;;20.42;46.14
56176;BME280;63065;51.082;17.016;2022-10-16T10:33:08;100537.80;;;20.73;46.47
56176;BME280;63065;51.082;17.016;2022-10-16T10:35:25;100545.46;;;20.79;46.10
56176;BME280;63065;51.082;17.016;2022-10-16T10:37:57;100545.55;;;20.79;46.54
56176;BME280;63065;51.082;17.016;2022-10-16T10:40:22;100544.34;;;20.91;46.35
56176;BME280;63065;51.082;17.016;2022-10-16T10:42:41;100544.46;;;20.93;46.21
56176;BME280;63065;51.082;17.016;2022-10-16T10:45:18;100543.27;;;20.73;46.16
56176;BME280;63065;51.082;17.016;2022-10-16T10:47:36;100541.00;;;21.13;45.57
56176;BME280;63065;51.082;17.016;2022-10-16T10:50:02;100533.52;;;21.09;46.02
56176;BME280;63065;51.082;17.016;2022-10-16T10:52:32;100532.63;;;21.38;46.42
56176;BME280;63065;51.082;17.016;2022-10-16T10:54:51;100539.62;;;21.42;45.72
56176;BME280;63065;51.082;17.016;2022-10-16T10:57:21;100537.80;;;21.40;45.23
56176;BME280;63065;51.082;17.016;2022-10-16T10:59:51;100536.85;;;21.46;44.89
56176;BME280;63065;51.082;17.016;2022-10-16T11:02:09;100539.98;;;21.61;44.66
56176;BME280;63065;51.082;17.016;2022-10-16T11:04:43;100545.36;;;21.98;43.67
56176;BME280;63065;51.082;17.016;2022-10-16T11:06:57;100539.94;;;22.06;43.73
56176;BME280;63065;51.082;17.016;2022-10-16T11:09:23;100532.43;;;21.99;43.38
56176;BME280;63065;51.082;17.016;2022-10-16T11:11:49;100535.58;;;22.13;42.95
56176;BME280;63065;51.082;17.016;2022-10-16T11:14:16;100527.31;;;22.04;42.63
56176;BME280;63065;51.082;17.016;2022-10-16T11:16:42;100534.57;;;21.90;43.25
56176;BME280;63065;51.082;17.016;2022-10-16T11:19:10;100528.96;;;21.56;43.50
56176;BME280;63065;51.082;17.016;2022-10-16T11:21:30;100525.45;;;21.43;44.07
56176;BME280;63065;51.082;17.016;2022-10-16T11:23:58;100523.91;;;21.50;44.52
56176;BME280;63065;51.082;17.016;2022-10-16T11:26:23;100523.53;;;21.05;45.10
56176;BME280;63065;51.082;17.016;2022-10-16T11:28:49;100519.77;;;21.58;44.66
56176;BME280;63065;51.082;17.016;2022-10-16T11:31:16;100516.07;;;21.11;44.17
56176;BME280;63065;51.082;17.016;2022-10-16T11:33:41;100523.15;;;21.37;44.49
56176;BME280;63065;51.082;17.016;2022-10-16T11:36:09;100529.02;;;21.40;44.73
56176;BME280;63065;51.082;17.016;2022-10-16T11:38:34;100531.94;;;21.99;43.58
56176;BME280;63065;51.082;17.016;2022-10-16T11:40:58;100531.87;;;21.89;44.00
56176;BME280;63065;51.082;17.016;2022-10-16T11:43:24;100526.50;;;22.53;42.71
56176;BME280;63065;51.082;17.016;2022-10-16T11:45:48;100526.38;;;22.79;42.69
56176;BME280;63065;51.082;17.016;2022-10-16T11:48:20;100525.24;;;22.75;43.05
56176;BME280;63065;51.082;17.016;2022-10-16T11:50:42;100521.63;;;22.98;42.73
56176;BME280;63065;51.082;17.016;2022-10-16T11:53:14;100521.23;;;22.79;42.35
56176;BME280;63065;51.082;17.016;2022-10-16T11:55:32;100521.39;;;22.74;42.44
56176;BME280;63065;51.082;17.016;2022-10-16T11:57:57;100530.10;;;22.89;42.49
56176;BME280;63065;51.082;17.016;2022-10-16T12:00:22;100528.80;;;22.16;42.65
56176;BME280;63065;51.082;17.016;2022-10-16T12:02:54;100527.53;;;22.50;42.44
56176;BME280;63065;51.082;17.016;2022-10-16T12:05:20;100522.12;;;22.35;42.74
56176;BME280;63065;51.082;17.016;2022-10-16T12:07:41;100521.16;;;22.33;42.82
56176;BME280;63065;51.082;17.016;2022-10-16T12:10:10;100529.84;;;22.53;42.89
56176;BME280;63065;51.082;17.016;2022-10-16T12:12:37;100540.19;;;22.50;42.85
56176;BME280;63065;51.082;17.016;2022-10-16T12:15:02;100546.91;;;22.08;43.23
56176;BME280;63065;51.082;17.016;2022-10-16T12:17:25;100549.08;;;22.18;43.61
56176;BME280;63065;51.082;17.016;2022-10-16T12:19:44;100559.70;;;22.21;43.73
56176;BME280;63065;51.082;17.016;2022-10-16T12:22:15;100563.24;;;21.84;43.63
56176;BME280;63065;51.082;17.016;2022-10-16T12:24:37;100566.10;;;22.05;43.72
56176;BME280;63065;51.082;17.016;2022-10-16T12:27:02;100567.71;;;22.25;43.51
56176;BME280;63065;51.082;17.016;2022-10-16T12:29:33;100570.38;;;22.24;43.49
56176;BME280;63065;51.082;17.016;2022-10-16T12:31:52;100574.93;;;21.83;43.37
56176;BME280;63065;51.082;17.016;2022-10-16T12:34:23;100579.44;;;22.05;43.34
56176;BME280;63065;51.082;17.016;2022-10-16T12:36:44;100575.58;;;21.85;43.61